Time;durP1;ratioP1;P1;durP2;ratioP2;P2;SDS_P1;SDS_P2;PMS_P1;PMS_P2;Temp;Humidity;BMP_temperature;BMP_pressure;BME280_temperature;BME280_humidity;BME280_pressure;Samples;Min_cycle;Max_cycle;Signal;HPM_P1;HPM_P2
2023/06/06 00:01:49;;;;;;;13.95;9.45;;;;;;;10.82;100.00;102150.91;5029893;28;20038;-51
2023/06/06 00:04:15;;;;;;;13.80;8.82;;;;;;;10.71;100.00;102141.38;5032162;28;20184;-51
2023/06/06 00:06:44;;;;;;;14.82;8.88;;;;;;;10.75;100.00;102160.66;5029348;28;20133;-51
2023/06/06 00:09:10;;;;;;;10.85;8.18;;;;;;;10.77;100.00;102166.75;5025458;28;20040;-50
2023/06/06 00:11:35;;;;;;;15.02;8.32;;;;;;;10.78;100.00;102150.06;5008644;28;20058;-53
2023/06/06 00:14:01;;;;;;;14.93;8.90;;;;;;;10.80;100.00;102156.19;5033151;28;20052;-53
2023/06/06 00:16:32;;;;;;;13.60;8.80;;;;;;;10.69;100.00;102139.66;5026399;28;20048;-52
2023/06/06 00:18:58;;;;;;;;;;;;;;;10.78;100.00;102160.59;5028768;28;20115;-52
2023/06/06 00:21:24;;;;;;;11.05;8.93;;;;;;;10.36;100.00;102083.00;5032363;28;19948;-54
2023/06/06 00:23:52;;;;;;;11.00;7.75;;;;;;;10.70;100.00;102141.41;5022041;28;20207;-52
2023/06/06 00:26:17;;;;;;;13.13;9.07;;;;;;;10.46;100.00;102104.81;5032350;28;20033;-56
2023/06/06 00:28:42;;;;;;;11.38;8.30;;;;;;;10.72;100.00;102151.03;5032049;28;20111;-53
2023/06/06 00:31:08;;;;;;;11.23;8.25;;;;;;;10.61;100.00;102129.22;5029104;28;20037;-55
2023/06/06 00:33:33;;;;;;;10.95;8.13;;;;;;;10.72;100.00;102150.16;5031793;28;20029;-55
2023/06/06 00:35:58;;;;;;;12.80;8.93;;;;;;;10.70;100.00;102151.94;5030669;28;20381;-54
2023/06/06 00:38:24;;;;;;;12.70;7.93;;;;;;;10.63;100.00;102137.09;5023398;28;20499;-54
2023/06/06 00:40:49;;;;;;;13.80;9.18;;;;;;;10.66;100.00;102143.19;5030887;28;20075;-54
2023/06/06 00:43:15;;;;;;;12.05;8.95;;;;;;;10.67;100.00;102158.13;5014169;28;20041;-58
2023/06/06 00:45:40;;;;;;;11.38;8.43;;;;;;;10.37;100.00;102095.28;5031375;28;20048;-55
2023/06/06 00:48:06;;;;;;;12.20;8.10;;;;;;;10.28;100.00;102084.84;5031215;28;20037;-53
2023/06/06 00:50:32;;;;;;;12.32;8.20;;;;;;;10.63;100.00;102144.97;5046932;28;20037;-49
2023/06/06 00:52:58;;;;;;;13.38;8.90;;;;;;;10.63;100.00;102151.13;5037384;28;20065;-54
2023/06/06 00:55:23;;;;;;;12.00;8.90;;;;;;;10.61;100.00;102149.41;5031486;28;20542;-53
2023/06/06 00:57:51;;;;;;;16.10;9.00;;;;;;;10.62;100.00;102153.78;5031310;28;20577;-54
2023/06/06 01:00:17;;;;;;;14.48;8.90;;;;;;;9.79;100.00;102009.97;5032462;28;20045;-51
2023/06/06 01:02:43;;;;;;;10.38;8.27;;;;;;;10.25;100.00;102091.91;4998327;28;20056;-53
2023/06/06 01:05:09;;;;;;;12.63;9.07;;;;;;;10.53;100.00;102135.47;5032405;28;20033;-52
2023/06/06 01:07:35;;;;;;;15.80;9.18;;;;;;;10.55;100.00;102152.13;5032303;28;20472;-55
2023/06/06 01:10:02;;;;;;;11.35;8.82;;;;;;;10.14;100.00;102082.38;5030427;28;20041;-53
2023/06/06 01:12:51;;;;;;;17.52;9.05;;;;;;;10.55;100.00;102145.09;5031543;28;20045;-54
2023/06/06 01:15:20;;;;;;;10.82;8.25;;;;;;;10.45;100.00;102132.06;5014137;28;20032;-53
2023/06/06 01:17:46;;;;;;;12.45;7.85;;;;;;;10.51;100.00;102140.72;5024772;28;20037;-55
2023/06/06 01:20:12;;;;;;;9.60;8.48;;;;;;;10.50;100.00;102143.41;5046169;28;20038;-55
2023/06/06 01:22:37;;;;;;;12.65;8.18;;;;;;;10.10;100.00;102078.00;5045027;28;20042;-52
2023/06/06 01:25:03;;;;;;;15.70;8.32;;;;;;;10.23;100.00;102097.19;5030655;28;20414;-54
2023/06/06 01:27:33;;;;;;;12.05;8.48;;;;;;;10.48;100.00;102137.25;5044920;28;20033;-52
2023/06/06 01:29:59;;;;;;;15.93;9.05;;;;;;;10.47;100.00;102140.81;5030515;28;20056;-54
2023/06/06 01:32:34;;;;;;;12.50;9.15;;;;;;;10.45;100.00;102146.06;5033514;28;20037;-56
2023/06/06 01:35:26;;;;;;;15.30;8.23;;;;;;;10.00;100.00;102055.31;5033686;28;20416;-55
2023/06/06 01:38:19;;;;;;;13.77;8.43;;;;;;;10.44;100.00;102141.72;5035817;28;20061;-51
2023/06/06 01:40:46;;;;;;;10.20;8.48;;;;;;;10.42;100.00;102138.19;5018729;28;20536;-51
2023/06/06 01:43:12;;;;;;;11.27;8.20;;;;;;;10.42;100.00;102138.19;5047898;28;20041;-55
2023/06/06 01:45:38;;;;;;;13.38;8.93;;;;;;;9.98;100.00;102062.34;5032816;28;20041;-51
2023/06/06 01:48:04;;;;;;;13.23;8.75;;;;;;;10.37;100.00;102126.88;5035789;28;20087;-54
2023/06/06 01:50:31;;;;;;;11.60;7.97;;;;;;;9.71;100.00;102022.31;5033573;28;20128;-56
2023/06/06 01:52:57;;;;;;;12.23;8.48;;;;;;;10.39;100.00;102132.97;5018924;28;20037;-53
2023/06/06 01:55:22;;;;;;;16.33;8.88;;;;;;;9.99;100.00;102060.59;5043759;28;20033;-56
2023/06/06 01:57:48;;;;;;;12.43;9.00;;;;;;;10.36;100.00;102137.44;5038421;28;20477;-55
2023/06/06 02:00:15;;;;;;;9.88;7.90;;;;;;;10.36;100.00;102132.16;5021851;28;20152;-56
2023/06/06 02:02:41;;;;;;;11.90;8.38;;;;;;;10.32;100.00;102131.31;5024790;28;20052;-56
2023/06/06 02:05:06;;;;;;;14.93;8.80;;;;;;;10.35;100.00;102125.13;5041929;28;20436;-56
2023/06/06 02:07:34;;;;;;;11.10;8.52;;;;;;;9.99;100.00;102063.22;5034475;28;20076;-58
2023/06/06 02:10:03;;;;;;;14.13;9.15;;;;;;;10.33;100.00;102125.19;5034591;28;20435;-54
2023/06/06 02:12:28;;;;;;;15.98;8.40;;;;;;;9.81;100.00;102037.97;5036263;28;20127;-51
2023/06/06 02:14:54;;;;;;;14.65;9.57;;;;;;;9.88;100.00;102058.09;5053872;28;20037;-54
2023/06/06 02:17:19;;;;;;;11.45;8.00;;;;;;;10.28;100.00;102124.31;5035076;28;20534;-53
2023/06/06 02:19:45;;;;;;;14.18;9.48;;;;;;;9.01;100.00;101945.03;5047716;28;20055;-54
2023/06/06 02:22:10;;;;;;;16.00;9.20;;;;;;;10.24;100.00;102132.28;5036555;28;20037;-51
2023/06/06 02:24:36;;;;;;;11.77;8.57;;;;;;;10.13;100.00;102120.09;5037278;28;20092;-53
2023/06/06 02:27:02;;;;;;;14.05;9.30;;;;;;;10.20;100.00;102141.09;5038494;28;20088;-54
2023/06/06 02:29:27;;;;;;;14.18;9.68;;;;;;;9.82;100.00;102078.31;5039375;28;20033;-56
2023/06/06 02:31:53;;;;;;;12.60;9.13;;;;;;;10.00;100.00;102115.81;5053999;28;20193;-52
2023/06/06 02:34:19;;;;;;;13.95;8.27;;;;;;;10.14;100.00;102153.44;5054111;28;20040;-56
2023/06/06 02:36:44;;;;;;;15.15;9.68;;;;;;;9.96;100.00;102108.84;5052332;28;20045;-56
2023/06/06 02:39:09;;;;;;;13.82;8.63;;;;;;;10.12;100.00;102139.41;5051063;28;20033;-55
2023/06/06 02:41:35;;;;;;;15.80;9.77;;;;;;;10.15;100.00;102128.88;5053394;28;20038;-54
2023/06/06 02:44:00;;;;;;;15.65;9.65;;;;;;;9.95;100.00;102093.94;5022735;28;20107;-56
2023/06/06 02:46:26;;;;;;;13.65;8.90;;;;;;;10.23;100.00;102125.28;5035051;28;20029;-55
2023/06/06 02:48:52;;;;;;;13.57;9.20;;;;;;;10.13;100.00;102117.47;5036120;28;20030;-54
2023/06/06 02:51:20;;;;;;;13.20;9.05;;;;;;;10.24;100.00;102127.03;5036960;28;20045;-55
2023/06/06 02:53:46;;;;;;;11.95;9.35;;;;;;;10.20;100.00;102098.97;5053671;28;20037;-54
2023/06/06 02:56:12;;;;;;;17.27;9.50;;;;;;;9.99;100.00;102073.75;5052800;28;20558;-52
2023/06/06 02:58:38;;;;;;;10.75;9.00;;;;;;;10.22;100.00;102119.13;5035847;28;20040;-53
2023/06/06 03:01:03;;;;;;;15.35;9.80;;;;;;;10.29;100.00;102128.72;5028628;28;20033;-55
2023/06/06 03:03:29;;;;;;;15.10;8.65;;;;;;;9.90;100.00;102068.56;5054345;28;20060;-55
2023/06/06 03:05:56;;;;;;;12.25;8.77;;;;;;;9.96;100.00;102071.13;5051892;28;20076;-57
2023/06/06 03:08:22;;;;;;;14.13;9.07;;;;;;;9.26;100.00;101968.44;5053012;28;20415;-56
2023/06/06 03:10:48;;;;;;;13.88;8.05;;;;;;;10.36;100.00;102132.16;5051434;28;20037;-54
2023/06/06 03:13:13;;;;;;;13.93;9.23;;;;;;;10.45;100.00;102134.69;5054408;28;20072;-55
2023/06/06 03:15:44;;;;;;;15.27;8.93;;;;;;;10.43;100.00;102126.81;5034483;28;20060;-51
2023/06/06 03:18:16;;;;;;;9.63;8.10;;;;;;;10.53;100.00;102140.72;5032462;28;20037;-51
2023/06/06 03:20:45;;;;;;;19.15;8.98;;;;;;;10.61;100.00;102136.25;5034139;28;20116;-55
2023/06/06 03:23:11;;;;;;;14.35;8.32;;;;;;;10.63;100.00;102139.72;5031398;28;20052;-55
2023/06/06 03:25:39;;;;;;;14.02;8.38;;;;;;;10.58;100.00;102133.66;5046189;28;20033;-53
2023/06/06 03:28:04;;;;;;;16.38;8.18;;;;;;;10.69;100.00;102139.66;5053129;28;20025;-54
2023/06/06 03:30:29;;;;;;;11.00;7.70;;;;;;;10.70;100.00;102139.66;5052320;28;20037;-54
2023/06/06 03:32:55;;;;;;;13.23;8.43;;;;;;;10.08;100.00;102037.69;5034502;28;20053;-56
2023/06/06 03:35:21;;;;;;;9.73;7.63;;;;;;;10.74;100.00;102141.34;5000878;28;20033;-54
2023/06/06 03:37:47;;;;;;;15.90;8.50;;;;;;;10.63;100.00;102126.56;5014179;28;20498;-54
2023/06/06 03:40:12;;;;;;;11.45;7.45;;;;;;;10.76;100.00;102140.44;5036476;28;20025;-53
2023/06/06 03:42:38;;;;;;;12.88;7.45;;;;;;;10.38;100.00;102075.97;5052502;28;20131;-51
2023/06/06 03:45:04;;;;;;;11.90;7.82;;;;;;;10.42;100.00;102072.41;5040538;28;20038;-50
2023/06/06 03:47:30;;;;;;;14.57;8.63;;;;;;;10.86;100.00;102144.72;5005887;28;20034;-51
2023/06/06 03:49:55;;;;;;;10.07;7.22;;;;;;;10.40;100.00;102066.28;5031967;28;20037;-54
2023/06/06 03:52:21;;;;;;;12.98;7.95;;;;;;;10.50;100.00;102082.84;5033699;28;20086;-54
2023/06/06 03:54:46;;;;;;;10.80;7.43;;;;;;;10.91;100.00;102141.13;5027780;28;20499;-57
2023/06/06 03:57:11;;;;;;;10.65;7.55;;;;;;;10.88;100.00;102153.47;5052331;28;20041;-55
2023/06/06 03:59:37;;;;;;;13.32;7.82;;;;;;;10.57;100.00;102085.38;5029100;28;20030;-56
2023/06/06 04:02:03;;;;;;;16.67;9.07;;;;;;;10.99;100.00;102146.28;5033213;28;20029;-54
2023/06/06 04:04:30;;;;;;;12.02;8.02;;;;;;;10.95;100.00;102134.03;5012657;28;20561;-54
2023/06/06 04:06:56;;;;;;;13.73;7.15;;;;;;;11.00;100.00;102148.94;5043578;28;20044;-54
2023/06/06 04:09:22;;;;;;;15.05;7.88;;;;;;;10.95;100.00;102160.38;5033296;28;20034;-54
2023/06/06 04:11:47;;;;;;;13.55;8.55;;;;;;;10.60;100.00;102082.72;5032835;28;20050;-54
2023/06/06 04:14:13;;;;;;;11.88;7.43;;;;;;;10.99;100.00;102148.94;5033175;28;20117;-54
2023/06/06 04:16:40;;;;;;;12.82;8.60;;;;;;;10.94;100.00;102134.94;5033255;28;20033;-57
2023/06/06 04:19:06;;;;;;;16.33;9.00;;;;;;;10.63;100.00;102087.06;5015729;28;20129;-53
2023/06/06 04:21:32;;;;;;;13.68;7.82;;;;;;;10.86;100.00;102134.19;5013801;28;20120;-50
2023/06/06 04:23:57;;;;;;;12.88;8.18;;;;;;;10.88;100.00;102121.88;5032648;28;20076;-54
2023/06/06 04:26:24;;;;;;;13.57;8.15;;;;;;;11.05;100.00;102151.47;5015446;28;20057;-50
2023/06/06 04:28:52;;;;;;;13.65;7.88;;;;;;;11.02;100.00;102141.88;5015572;28;20467;-52
2023/06/06 04:31:18;;;;;;;12.38;7.65;;;;;;;11.04;100.00;102147.97;5015500;28;20439;-55
2023/06/06 04:33:44;;;;;;;13.68;8.48;;;;;;;11.07;100.00;102140.03;5030037;28;20480;-57
2023/06/06 04:36:11;;;;;;;15.23;8.07;;;;;;;10.97;100.00;102125.25;5032601;28;20040;-54
2023/06/06 04:38:37;;;;;;;12.27;7.25;;;;;;;10.59;100.00;102059.03;5006205;28;20042;-56
2023/06/06 04:41:02;;;;;;;17.38;7.65;;;;;;;10.64;100.00;102073.88;5011846;28;20045;-53
2023/06/06 04:43:27;;;;;;;17.10;8.73;;;;;;;11.06;100.00;102147.97;5012910;28;20532;-51
2023/06/06 04:45:53;;;;;;;15.80;8.30;;;;;;;11.09;100.00;102148.78;5020949;28;20393;-51
2023/06/06 04:48:19;;;;;;;11.98;7.50;;;;;;;11.14;100.00;102139.06;5020936;28;20044;-56
2023/06/06 04:50:49;;;;;;;15.73;8.10;;;;;;;11.18;100.00;102140.75;5013579;28;20029;-50
2023/06/06 04:53:14;;;;;;;9.57;7.00;;;;;;;11.22;100.00;102147.72;5014786;28;20124;-54
2023/06/06 04:55:40;;;;;;;14.55;8.02;;;;;;;11.21;100.00;102151.25;5032268;28;20112;-54
2023/06/06 04:58:05;;;;;;;13.63;7.65;;;;;;;10.87;100.00;102081.47;5032325;28;20041;-58
2023/06/06 05:00:30;;;;;;;14.85;7.63;;;;;;;10.78;100.00;102059.66;5029798;28;20439;-55
2023/06/06 05:02:56;;;;;;;10.98;7.25;;;;;;;11.27;100.00;102137.97;4995793;28;20508;-54
2023/06/06 05:05:21;;;;;;;12.32;7.57;;;;;;;11.38;100.00;102155.41;5031116;28;20064;-57
2023/06/06 05:07:47;;;;;;;13.38;8.18;;;;;;;11.42;100.00;102151.81;5031309;28;20091;-56
2023/06/06 05:10:12;;;;;;;10.55;6.80;;;;;;;10.84;100.00;102042.00;5032249;28;20038;-56
2023/06/06 05:12:38;;;;;;;12.20;8.32;;;;;;;11.13;100.00;102083.72;5031435;28;20088;-54
2023/06/06 05:15:04;;;;;;;11.25;7.75;;;;;;;11.12;100.00;102085.47;5031590;28;20108;-53
2023/06/06 05:17:29;;;;;;;13.32;7.40;;;;;;;11.18;100.00;102074.84;5030543;28;20041;-53
2023/06/06 05:19:55;;;;;;;12.88;8.00;;;;;;;11.70;100.00;102145.28;5027981;28;20550;-54
2023/06/06 05:22:20;;;;;;;12.55;8.40;;;;;;;11.39;100.00;102073.66;5027701;28;20487;-55
2023/06/06 05:24:46;;;;;;;21.13;8.15;;;;;;;11.73;100.00;102145.22;5031015;28;20084;-54
2023/06/06 05:27:11;;;;;;;14.10;8.02;;;;;;;11.75;100.00;102157.50;5031737;28;20040;-57
2023/06/06 05:29:37;;;;;;;12.88;7.38;;;;;;;11.78;100.00;102146.00;5030379;28;20025;-52
2023/06/06 05:32:03;;;;;;;14.43;8.48;;;;;;;11.80;100.00;102129.25;5013288;28;20109;-56
2023/06/06 05:34:30;;;;;;;14.43;7.85;;;;;;;11.97;100.00;102143.91;5011899;28;20045;-53
2023/06/06 05:36:55;;;;;;;10.93;7.28;;;;;;;11.98;100.00;102146.53;5011024;28;20397;-54
2023/06/06 05:39:22;;;;;;;11.60;7.32;;;;;;;11.61;100.00;102082.09;5010949;28;20034;-53
2023/06/06 05:41:48;;;;;;;14.05;8.23;;;;;;;12.02;100.00;102144.72;5012770;28;20049;-53
2023/06/06 05:44:13;;;;;;;15.25;8.10;;;;;;;11.65;100.00;102083.75;5010600;28;20041;-55
2023/06/06 05:46:40;;;;;;;13.68;7.65;;;;;;;12.03;100.00;102159.63;5012246;28;20472;-53
2023/06/06 05:49:05;;;;;;;11.68;8.00;;;;;;;11.68;100.00;102094.25;5027464;28;20326;-51
2023/06/06 05:51:30;;;;;;;12.35;8.63;;;;;;;11.99;100.00;102123.66;5027212;28;20040;-54
2023/06/06 05:53:56;;;;;;;12.90;8.05;;;;;;;12.16;100.00;102119.81;5030742;28;20030;-52
2023/06/06 05:56:21;;;;;;;15.25;7.28;;;;;;;12.51;100.00;102158.75;5031861;28;20116;-54
2023/06/06 05:58:47;;;;;;;15.85;8.07;;;;;;;12.51;100.00;102158.75;5032056;28;20440;-54
2023/06/06 06:01:13;;;;;;;11.90;7.15;;;;;;;11.95;100.00;102059.53;5013794;28;20031;-53
2023/06/06 06:03:41;;;;;;;16.02;7.63;;;;;;;11.92;100.00;102061.34;5013820;28;20047;-54
2023/06/06 06:06:08;;;;;;;12.98;7.30;;;;;;;12.58;100.00;102152.44;5031495;28;20049;-54
2023/06/06 06:08:37;;;;;;;13.07;7.20;;;;;;;12.57;100.00;102131.34;5028548;28;20041;-54
2023/06/06 06:11:03;;;;;;;10.50;6.70;;;;;;;12.18;100.00;102072.25;5011894;28;20080;-55
2023/06/06 06:13:29;;;;;;;14.90;7.28;;;;;;;12.26;100.00;102065.94;5013191;28;20045;-55
2023/06/06 06:15:54;;;;;;;15.13;7.78;;;;;;;12.95;100.00;102149.94;5031183;28;20045;-54
2023/06/06 06:18:20;;;;;;;12.57;7.00;;;;;;;13.11;100.00;102156.63;5033447;28;20051;-55
2023/06/06 06:20:46;;;;;;;10.98;7.70;;;;;;;12.89;100.00;102111.28;5035032;28;20079;-56
2023/06/06 06:23:11;;;;;;;11.05;7.18;;;;;;;13.14;100.00;102171.56;5032353;28;20492;-56
2023/06/06 06:25:37;;;;;;;11.80;7.22;;;;;;;13.08;100.00;102145.25;5017132;28;20089;-55
2023/06/06 06:28:03;;;;;;;11.95;6.93;;;;;;;13.06;100.00;102104.75;5034912;28;20038;-57
2023/06/06 06:30:28;;;;;;;8.45;6.35;;;;;;;13.50;100.00;102168.09;5017659;28;20072;-55
2023/06/06 06:32:53;;;;;;;11.57;7.13;;;;;;;13.15;100.00;102118.66;5035384;28;20116;-56
2023/06/06 06:35:19;;;;;;;8.95;6.80;;;;;;;13.39;100.00;102162.19;5033643;28;20456;-55
2023/06/06 06:37:44;;;;;;;11.73;6.90;;;;;;;13.07;100.00;102102.09;5035112;28;20052;-53
2023/06/06 06:40:10;;;;;;;9.05;7.22;;;;;;;13.44;100.00;102166.47;5033394;28;20033;-54
2023/06/06 06:42:40;;;;;;;12.15;8.25;;;;;;;13.23;100.00;102107.91;5034616;28;20072;-54
2023/06/06 06:45:14;;;;;;;13.50;7.40;;;;;;;13.33;100.00;102109.44;5034745;28;20036;-52
2023/06/06 06:47:40;;;;;;;11.52;7.60;;;;;;;13.75;100.00;102169.25;5017201;28;20361;-55
2023/06/06 06:50:06;;;;;;;11.95;7.30;;;;;;;13.77;100.00;102169.22;5034674;28;20052;-53
2023/06/06 06:52:33;;;;;;;14.65;7.10;;;;;;;13.39;100.00;102109.28;5034685;28;20045;-53
2023/06/06 06:55:01;;;;;;;13.40;7.47;;;;;;;13.49;100.00;102109.03;5034231;28;20579;-55
2023/06/06 06:57:29;;;;;;;11.73;7.15;;;;;;;13.96;100.00;102176.66;5032452;28;20029;-56
2023/06/06 06:59:56;;;;;;;13.65;7.78;;;;;;;13.64;100.00;102112.19;5014828;28;20104;-54
2023/06/06 07:02:28;;;;;;;12.32;7.30;;;;;;;14.03;100.00;102156.19;5014662;28;20042;-53
2023/06/06 07:04:54;;;;;;;15.13;7.15;;;;;;;13.74;100.00;102113.72;5014868;28;20124;-54
2023/06/06 07:07:20;;;;;;;13.85;8.32;;;;;;;14.03;100.00;102166.78;5013220;28;20117;-55
2023/06/06 07:09:45;;;;;;;14.13;8.07;;;;;;;14.17;100.00;102162.00;5014736;28;20606;-57
2023/06/06 07:12:11;;;;;;;10.90;7.53;;;;;;;14.49;100.00;102170.00;5014400;28;20148;-54
2023/06/06 07:14:36;;;;;;;16.23;8.18;;;;;;;14.70;100.00;102175.59;4997034;28;20037;-56
2023/06/06 07:17:03;;;;;;;12.10;7.63;;;;;;;14.62;100.00;102175.81;5012051;28;20069;-55
2023/06/06 07:19:28;;;;;;;12.80;7.68;;;;;;;14.45;100.00;102125.94;5014708;28;20112;-55
2023/06/06 07:21:56;;;;;;;13.75;7.53;;;;;;;14.94;100.00;102181.09;5014150;28;20456;-52
2023/06/06 07:24:22;;;;;;;12.70;7.22;;;;;;;15.07;100.00;102177.13;5014646;28;20457;-56
2023/06/06 07:26:47;;;;;;;13.63;7.22;;;;;;;15.21;100.00;102176.72;5014598;28;20088;-56
2023/06/06 07:29:12;;;;;;;11.05;7.38;;;;;;;15.05;100.00;102127.72;5013684;28;20488;-56
2023/06/06 07:31:38;;;;;;;11.38;7.90;;;;;;;15.38;100.00;102176.22;5021131;28;20041;-55
2023/06/06 07:34:04;;;;;;;13.55;7.43;;;;;;;15.09;100.00;102113.47;5034323;28;20389;-56
2023/06/06 07:36:29;;;;;;;12.45;7.30;;;;;;;15.64;100.00;102173.66;5033942;28;20116;-57
2023/06/06 07:38:57;;;;;;;10.95;7.28;;;;;;;15.65;100.00;102175.34;5034050;28;20037;-55
2023/06/06 07:41:22;;;;;;;11.82;6.75;;;;;;;15.79;100.00;102174.94;5033782;28;20473;-57
2023/06/06 07:43:48;;;;;;;13.52;7.10;;;;;;;15.71;100.00;102135.34;5033626;28;20048;-56
2023/06/06 07:46:13;;;;;;;12.13;7.13;;;;;;;16.26;100.00;102175.03;5033837;28;20038;-56
2023/06/06 07:48:38;;;;;;;10.40;6.78;;;;;;;16.62;100.00;102158.75;5032559;28;20439;-55
2023/06/06 07:51:04;;;;;;;13.77;7.63;;;;;;;16.76;100.00;102162.63;5034023;28;20144;-55
2023/06/06 07:53:29;;;;;;;10.60;6.18;;;;;;;17.15;100.00;102173.56;5033818;28;20057;-54
2023/06/06 07:55:55;;;;;;;9.00;6.13;;;;;;;16.58;100.00;102112.78;5033284;28;20497;-55
2023/06/06 07:58:25;;;;;;;9.32;6.50;;;;;;;17.12;100.00;102171.03;5015609;28;20041;-56
2023/06/06 08:00:51;;;;;;;10.18;6.60;;;;;;;17.93;100.00;102168.66;5033099;28;20104;-54
2023/06/06 08:03:16;;;;;;;11.63;6.10;;;;;;;18.51;100.00;102173.25;5032167;28;20197;-57
2023/06/06 08:05:42;;;;;;;7.28;6.15;;;;;;;18.49;100.00;102123.59;5033246;28;20445;-56
2023/06/06 08:08:07;;;;;;;8.85;6.32;;;;;;;19.05;100.00;102131.66;5032781;28;20531;-56
2023/06/06 08:10:33;;;;;;;8.57;5.40;;;;;;;19.35;100.00;102180.91;5032652;28;20033;-55
2023/06/06 08:13:01;;;;;;;9.85;6.53;;;;;;;19.35;100.00;102188.06;5032752;28;20053;-55
2023/06/06 08:15:27;;;;;;;8.15;5.90;;;;;;;18.97;100.00;102165.84;5015046;28;20037;-55
2023/06/06 08:17:53;;;;;;;9.65;5.50;;;;;;;18.86;100.00;102185.00;5032806;28;20030;-55
2023/06/06 08:20:19;;;;;;;13.45;6.07;;;;;;;18.40;100.00;102097.31;5013738;28;20052;-56
2023/06/06 08:22:50;;;;;;;10.77;6.38;;;;;;;18.69;100.00;102102.22;5032889;28;20041;-55
2023/06/06 08:25:16;;;;;;;12.38;6.15;;;;;;;19.02;100.00;102113.13;5015053;28;20025;-55
2023/06/06 08:27:42;;;;;;;12.88;5.85;;;;;;;19.99;100.00;102161.78;5015102;28;20048;-54
2023/06/06 08:30:08;;;;;;;7.47;5.82;;;;;;;20.26;100.00;102157.69;5014646;28;20033;-57
2023/06/06 08:32:34;;;;;;;10.10;5.82;;;;;;;20.11;100.00;102183.38;5032826;28;20108;-56
2023/06/06 08:34:59;;;;;;;10.98;5.82;;;;;;;19.84;100.00;102176.78;5015235;28;20506;-56
2023/06/06 08:37:25;;;;;;;10.75;6.32;;;;;;;20.23;100.00;102172.06;5031054;28;20033;-55
2023/06/06 08:39:50;;;;;;;9.93;6.43;;;;;;;20.83;100.00;102168.94;5032588;28;20036;-57
2023/06/06 08:42:20;;;;;;;11.63;6.88;;;;;;;20.44;100.00;102180.81;5032313;28;20034;-55
2023/06/06 08:44:45;;;;;;;11.05;5.50;;;;;;;19.88;100.00;102107.97;5032242;28;20115;-57
2023/06/06 08:47:11;;;;;;;8.82;6.22;;;;;;;19.77;100.00;102121.91;5032818;28;20037;-54
2023/06/06 08:49:37;;;;;;;10.02;6.05;;;;;;;19.83;100.00;102105.56;5014955;28;20029;-56
2023/06/06 08:52:07;;;;;;;9.88;6.00;;;;;;;20.51;100.00;102157.28;5031159;28;20061;-56
2023/06/06 08:54:33;;;;;;;8.60;6.18;;;;;;;20.49;100.00;102114.56;5032328;28;20033;-55
2023/06/06 08:57:07;;;;;;;8.98;6.18;;;;;;;21.39;100.00;102179.25;5032212;28;20668;-56
2023/06/06 08:59:36;;;;;;;8.60;6.63;;;;;;;21.35;100.00;102173.19;5031325;28;20036;-56
2023/06/06 09:02:03;;;;;;;10.02;6.00;;;;;;;21.24;100.00;102120.25;5032169;28;20088;-56
2023/06/06 09:04:29;;;;;;;11.40;6.63;;;;;;;21.39;100.00;102180.13;5030322;28;20034;-58
2023/06/06 09:06:56;;;;;;;11.15;6.45;;;;;;;21.04;100.00;102176.69;5031180;28;20442;-57
2023/06/06 09:09:22;;;;;;;9.98;5.97;;;;;;;21.21;100.00;102173.09;5029505;28;20048;-57
2023/06/06 09:11:47;;;;;;;7.60;5.88;;;;;;;21.47;100.00;102160.91;5025631;28;20057;-56
2023/06/06 09:14:14;;;;;;;10.15;6.55;;;;;;;21.88;100.00;102164.78;5014472;28;20045;-55
2023/06/06 09:16:41;;;;;;;10.50;6.93;;;;;;;20.96;100.00;102062.91;5028419;28;20041;-56
2023/06/06 09:19:07;;;;;;;12.90;6.95;;;;;;;21.60;100.00;102162.78;5031880;28;20029;-57
2023/06/06 09:21:33;;;;;;;9.63;6.43;;;;;;;21.25;100.00;102116.59;5031943;28;20029;-54
2023/06/06 09:23:58;;;;;;;9.13;5.97;;;;;;;21.86;100.00;102159.47;5014088;28;20033;-55
2023/06/06 09:26:25;;;;;;;9.27;7.00;;;;;;;21.07;100.00;102155.06;5030318;28;20060;-58
2023/06/06 09:28:51;;;;;;;10.75;6.75;;;;;;;21.25;100.00;102084.44;5032113;28;20116;-55
2023/06/06 09:31:30;;;;;;;13.05;7.47;;;;;;;21.78;100.00;102166.22;5029062;28;20077;-56
2023/06/06 09:33:57;;;;;;;7.45;6.15;;;;;;;21.55;100.00;102146.13;5030606;28;20423;-56
2023/06/06 09:36:24;;;;;;;9.35;6.80;;;;;;;22.22;100.00;102159.13;5014080;28;20037;-55
2023/06/06 09:38:51;;;;;;;13.88;6.35;;;;;;;22.37;100.00;102157.34;5031884;28;20042;-55
2023/06/06 09:41:17;;;;;;;10.95;7.13;;;;;;;21.77;100.00;102121.63;5030536;28;20485;-54
2023/06/06 09:43:42;;;;;;;8.13;5.65;;;;;;;22.48;100.00;102144.13;5013980;28;20033;-59
2023/06/06 09:46:07;;;;;;;10.98;6.43;;;;;;;22.78;100.00;102163.75;5028441;28;20035;-53
2023/06/06 09:48:33;;;;;;;11.25;6.60;;;;;;;22.17;100.00;102106.72;5028854;28;20129;-55
2023/06/06 09:50:58;;;;;;;12.10;6.43;;;;;;;22.64;100.00;102149.44;5031862;28;20548;-54
2023/06/06 09:53:28;;;;;;;9.75;6.75;;;;;;;22.71;100.00;102161.53;5033498;28;20462;-54
2023/06/06 09:55:57;;;;;;;12.38;7.05;;;;;;;22.00;100.00;102165.88;5029133;28;20036;-55
2023/06/06 09:58:25;;;;;;;13.02;7.85;;;;;;;22.77;100.00;102142.34;5035317;28;20477;-56
2023/06/06 10:00:52;;;;;;;10.10;5.78;;;;;;;23.13;100.00;102141.84;5035044;28;20037;-56
2023/06/06 10:03:21;;;;;;;9.43;6.35;;;;;;;23.39;100.00;102152.66;5035199;28;20045;-55
2023/06/06 10:05:50;;;;;;;12.88;6.72;;;;;;;23.33;100.00;102128.84;5035416;28;20401;-57
2023/06/06 10:08:19;;;;;;;8.35;6.10;;;;;;;23.36;100.00;102112.53;5035450;28;20439;-56
2023/06/06 10:10:46;;;;;;;8.68;6.05;;;;;;;23.83;100.00;102157.78;5035408;28;20037;-54
2023/06/06 10:13:16;;;;;;;8.40;6.35;;;;;;;23.69;100.00;102170.44;5033884;28;20172;-55
2023/06/06 10:15:41;;;;;;;11.38;7.10;;;;;;;23.72;100.00;102181.84;5017975;28;20057;-55
2023/06/06 10:18:08;;;;;;;11.73;6.55;;;;;;;21.88;100.00;102105.81;5035019;28;20067;-54
2023/06/06 10:20:34;;;;;;;10.93;6.38;;;;;;;22.46;100.00;102088.84;5035049;28;20033;-57
2023/06/06 10:23:01;;;;;;;10.43;6.43;;;;;;;23.71;100.00;102166.66;5035273;28;20033;-55
2023/06/06 10:25:27;;;;;;;10.85;7.07;;;;;;;23.61;100.00;102106.44;5034175;28;20033;-54
2023/06/06 10:27:57;;;;;;;10.57;6.32;;;;;;;24.09;100.00;102103.09;5033904;28;20042;-54
2023/06/06 10:30:42;;;;;;;11.55;6.28;;;;;;;23.68;100.00;102172.25;5033549;28;20489;-52
2023/06/06 10:33:33;;;;;;;8.70;5.68;;;;;;;24.44;100.00;102161.69;5015499;28;20034;-51
2023/06/06 10:36:08;;;;;;;11.10;6.03;;;;;;;24.51;100.00;102107.34;5013706;28;20030;-52
2023/06/06 10:38:34;;;;;;;9.35;5.30;;;;;;;24.47;100.00;102124.66;5023477;28;20463;-54
2023/06/06 10:40:59;;;;;;;9.00;6.95;;;;;;;23.75;100.00;102127.00;5013333;28;20050;-54
2023/06/06 10:43:34;;;;;;;10.35;5.80;;;;;;;24.08;100.00;102183.88;5015210;28;20048;-52
2023/06/06 10:46:01;;;;;;;8.85;5.90;;;;;;;23.59;100.00;102091.34;5015293;28;20575;-54
2023/06/06 10:48:42;;;;;;;10.77;6.00;;;;;;;24.64;100.00;102150.38;5014780;28;20037;-51
2023/06/06 10:51:24;;;;;;;8.35;5.47;;;;;;;24.77;100.00;102096.53;4997537;28;20060;-54
2023/06/06 10:54:19;;;;;;;7.25;5.47;;;;;;;25.18;100.00;102113.28;4997313;28;20073;-54
2023/06/06 10:56:53;;;;;;;9.65;6.50;;;;;;;24.79;100.00;102153.84;5014990;28;20068;-55
2023/06/06 10:59:28;;;;;;;10.70;6.20;;;;;;;23.69;100.00;102165.06;5026806;28;20048;-54
2023/06/06 11:01:54;;;;;;;10.82;6.20;;;;;;;23.49;100.00;102155.63;5034413;28;20475;-52
2023/06/06 11:04:29;;;;;;;8.48;6.18;;;;;;;24.30;100.00;102137.56;5033667;28;20052;-53
2023/06/06 11:07:01;;;;;;;10.65;6.15;;;;;;;24.58;100.00;102091.59;5032943;28;20033;-55
2023/06/06 11:09:33;;;;;;;9.80;6.43;;;;;;;24.71;100.00;102121.22;5000418;28;20029;-53
2023/06/06 11:12:13;;;;;;;8.07;6.22;;;;;;;25.55;100.00;102162.66;5016363;28;20246;-53